Time;durP1;ratioP1;P1;durP2;ratioP2;P2;SDS_P1;SDS_P2;PMS_P1;PMS_P2;Temp;Humidity;BMP_temperature;BMP_pressure;BME280_temperature;BME280_humidity;BME280_pressure;Samples;Min_cycle;Max_cycle;Signal;HPM_P1;HPM_P2
2021/11/21 00:00:55;;;;;;;0.30;0.30;;;;;;;4.40;97.56;98988.81;4966074;29;20046;-72
2021/11/21 00:03:21;;;;;;;0.30;0.30;;;;;;;4.42;97.52;99005.09;4966214;29;20031;-71
2021/11/21 00:05:46;;;;;;;0.30;0.30;;;;;;;4.36;97.64;99005.13;4965910;29;20226;-71
2021/11/21 00:08:13;;;;;;;0.30;0.30;;;;;;;4.35;97.59;99009.41;4966075;29;20027;-71
2021/11/21 00:10:38;;;;;;;0.30;0.30;;;;;;;4.28;97.42;99000.84;4966130;29;20046;-71
2021/11/21 00:13:05;;;;;;;0.30;0.30;;;;;;;4.25;97.55;99007.75;4966004;29;20054;-71
2021/11/21 00:15:32;;;;;;;0.30;0.30;;;;;;;4.26;97.80;99004.31;4965892;29;20019;-70
2021/11/21 00:17:58;;;;;;;0.30;0.30;;;;;;;4.26;97.72;99014.59;4965568;29;20048;-71
2021/11/21 00:20:24;;;;;;;0.35;0.35;;;;;;;4.26;97.81;99030.88;4965820;29;20042;-70
2021/11/21 00:22:50;;;;;;;0.38;0.38;;;;;;;4.25;97.88;99041.16;4965672;29;20057;-71
2021/11/21 00:25:15;;;;;;;0.30;0.30;;;;;;;4.27;98.22;99042.84;4965772;29;20031;-70
2021/11/21 00:27:40;;;;;;;0.40;0.40;;;;;;;4.35;98.02;99050.50;4965849;29;20023;-70
2021/11/21 00:30:06;;;;;;;0.30;0.30;;;;;;;4.38;98.27;99045.34;4965755;29;20027;-70
2021/11/21 00:32:32;;;;;;;0.30;0.30;;;;;;;4.40;98.22;99035.94;4965849;29;20047;-70
2021/11/21 00:34:57;;;;;;;0.30;0.30;;;;;;;4.37;98.17;99043.66;4965845;29;20407;-70
2021/11/21 00:37:23;;;;;;;0.40;0.40;;;;;;;4.36;98.25;99044.50;4965355;29;20042;-70
2021/11/21 00:39:48;;;;;;;0.40;0.40;;;;;;;4.31;98.22;99041.13;4965562;29;20054;-69
2021/11/21 00:42:15;;;;;;;0.30;0.30;;;;;;;4.27;97.92;99034.25;4965466;29;20023;-71
2021/11/21 00:44:43;;;;;;;0.38;0.38;;;;;;;4.22;98.18;99045.44;4965293;29;20111;-70
2021/11/21 00:47:09;;;;;;;0.40;0.40;;;;;;;4.21;98.06;99043.72;4965412;29;20031;-71
2021/11/21 00:49:35;;;;;;;0.30;0.30;;;;;;;4.19;98.21;99042.00;4965187;29;20068;-71
2021/11/21 00:52:01;;;;;;;0.30;0.30;;;;;;;4.19;98.28;99053.16;4965280;29;20030;-71
2021/11/21 00:54:41;;;;;;;0.30;0.30;;;;;;;4.18;98.23;99051.44;4965306;28;20059;-71
2021/11/21 00:57:07;;;;;;;0.30;0.30;;;;;;;4.20;98.36;99054.84;4965222;29;20027;-71
2021/11/21 00:59:32;;;;;;;0.40;0.40;;;;;;;4.22;98.29;99065.13;4965433;29;20039;-71
2021/11/21 01:01:58;;;;;;;0.30;0.30;;;;;;;4.23;98.41;99059.13;4965110;29;20050;-71
2021/11/21 01:04:24;;;;;;;0.40;0.40;;;;;;;4.28;98.58;99064.25;4965187;29;20031;-70
2021/11/21 01:06:49;;;;;;;0.30;0.30;;;;;;;4.31;98.46;99059.94;4965302;29;20051;-71
2021/11/21 01:09:15;;;;;;;0.40;0.40;;;;;;;4.33;98.78;99070.22;4965285;29;20034;-71
2021/11/21 01:11:41;;;;;;;0.38;0.38;;;;;;;4.30;98.36;99070.22;4965076;29;20031;-70
2021/11/21 01:14:08;;;;;;;0.40;0.40;;;;;;;4.34;98.40;99069.38;4965179;29;20031;-70
2021/11/21 01:16:34;;;;;;;0.30;0.30;;;;;;;4.29;98.29;99069.38;4964693;29;20028;-70
2021/11/21 01:18:59;;;;;;;0.30;0.30;;;;;;;4.27;98.31;99063.38;4965155;29;20069;-71
2021/11/21 01:21:25;;;;;;;0.30;0.30;;;;;;;4.26;98.04;99060.81;4965006;29;20035;-70
2021/11/21 01:23:51;;;;;;;0.30;0.30;;;;;;;4.26;98.46;99061.69;4965156;29;20039;-71
2021/11/21 01:26:16;;;;;;;0.30;0.30;;;;;;;4.29;98.56;99071.09;4965074;29;20027;-70
2021/11/21 01:28:41;;;;;;;0.30;0.30;;;;;;;4.31;98.41;99074.53;4965237;29;20041;-70
2021/11/21 01:31:07;;;;;;;0.30;0.30;;;;;;;4.33;98.51;99075.34;4964950;29;20027;-70
2021/11/21 01:33:33;;;;;;;0.30;0.30;;;;;;;4.36;98.62;99077.06;4965144;29;20030;-71
2021/11/21 01:35:58;;;;;;;0.35;0.35;;;;;;;4.34;98.56;99069.38;4963505;29;20028;-71
2021/11/21 01:38:24;;;;;;;0.40;0.40;;;;;;;4.29;98.36;99071.09;4964941;29;20027;-71
2021/11/21 01:40:49;;;;;;;0.30;0.30;;;;;;;4.23;98.15;99059.13;4964842;29;20058;-70
2021/11/21 01:43:15;;;;;;;0.40;0.40;;;;;;;4.16;97.99;99042.88;4964998;29;20027;-71
2021/11/21 01:45:41;;;;;;;0.40;0.40;;;;;;;4.17;98.23;99052.28;4964675;29;20026;-70
2021/11/21 01:48:07;;;;;;;0.30;0.30;;;;;;;4.16;98.18;99042.88;4964581;29;20023;-71
2021/11/21 01:50:41;;;;;;;0.30;0.30;;;;;;;4.12;98.13;99056.59;4964585;29;20365;-71
2021/11/21 01:53:07;;;;;;;0.30;0.30;;;;;;;4.12;98.24;99054.00;4964763;29;20087;-71
2021/11/21 01:55:33;;;;;;;0.35;0.35;;;;;;;4.15;98.33;99063.44;4964849;29;20031;-71
2021/11/21 01:57:59;;;;;;;0.30;0.30;;;;;;;4.18;98.43;99069.44;4964714;29;20020;-71
2021/11/21 02:00:28;;;;;;;0.30;0.30;;;;;;;4.18;98.38;99077.13;4964647;29;20082;-70
2021/11/21 02:02:54;;;;;;;0.30;0.30;;;;;;;4.19;98.47;99076.28;4964680;29;20039;-70
2021/11/21 02:05:20;;;;;;;0.38;0.38;;;;;;;4.22;98.49;99076.25;4965704;28;20030;-70
2021/11/21 02:07:47;;;;;;;0.40;0.40;;;;;;;4.21;98.40;99069.41;4968037;29;20093;-70
2021/11/21 02:10:16;;;;;;;0.40;0.40;;;;;;;4.24;98.32;99078.81;4968088;29;20027;-71
2021/11/21 02:12:42;;;;;;;0.30;0.30;;;;;;;4.20;98.23;99070.25;4968005;29;20104;-70
2021/11/21 02:15:11;;;;;;;0.40;0.40;;;;;;;4.16;98.39;99076.28;4967773;29;20039;-70
2021/11/21 02:17:37;;;;;;;0.30;0.30;;;;;;;4.14;98.16;99080.56;4966450;29;20065;-70
2021/11/21 02:20:05;;;;;;;0.40;0.40;;;;;;;4.16;98.24;99083.13;4968074;29;20027;-70
2021/11/21 02:22:30;;;;;;;0.32;0.32;;;;;;;4.18;98.43;99089.13;4967933;29;20082;-70
2021/11/21 02:24:56;;;;;;;0.30;0.30;;;;;;;4.16;98.44;99096.84;4967887;29;20027;-70
2021/11/21 02:27:28;;;;;;;0.30;0.30;;;;;;;4.18;98.39;99101.97;4967765;29;20061;-70
2021/11/21 02:29:54;;;;;;;0.30;0.30;;;;;;;4.17;98.51;99108.81;4967821;29;20055;-69
2021/11/21 02:32:20;;;;;;;0.30;0.30;;;;;;;4.18;98.25;99110.53;4968023;29;20030;-70
2021/11/21 02:34:45;;;;;;;0.40;0.40;;;;;;;4.20;98.30;99110.53;4967446;29;20038;-69
2021/11/21 02:37:10;;;;;;;0.40;0.40;;;;;;;4.19;98.33;99116.50;4967331;29;20051;-71
2021/11/21 02:39:38;;;;;;;0.30;0.30;;;;;;;4.18;98.29;99125.94;4967313;28;20101;-71
2021/11/21 02:42:04;;;;;;;0.38;0.38;;;;;;;4.19;98.36;99127.66;4967475;29;20037;-70
2021/11/21 02:44:29;;;;;;;0.35;0.35;;;;;;;4.22;98.46;99126.78;4967539;29;20062;-71
2021/11/21 02:46:56;;;;;;;0.30;0.30;;;;;;;4.22;98.53;99121.63;4967084;29;20027;-71
2021/11/21 02:49:21;;;;;;;0.40;0.40;;;;;;;4.22;98.61;99143.06;4967338;29;20023;-71
2021/11/21 02:51:47;;;;;;;0.32;0.32;;;;;;;4.25;98.46;99137.03;4966985;29;20077;-71
2021/11/21 02:54:12;;;;;;;0.40;0.40;;;;;;;4.25;98.59;99131.06;4967292;29;20056;-71
2021/11/21 02:56:38;;;;;;;0.30;0.30;;;;;;;4.22;98.50;99137.06;4967260;29;20023;-71
2021/11/21 02:59:03;;;;;;;0.30;0.30;;;;;;;4.22;98.54;99148.19;4967232;29;20065;-70
2021/11/21 03:01:29;;;;;;;0.30;0.30;;;;;;;4.19;98.60;99145.63;4967162;29;20118;-70
2021/11/21 03:03:55;;;;;;;0.40;0.40;;;;;;;4.20;98.55;99149.06;4967273;29;20019;-70
2021/11/21 03:06:21;;;;;;;0.30;0.30;;;;;;;4.21;98.63;99145.63;4967027;29;20023;-71
2021/11/21 03:08:46;;;;;;;0.30;0.30;;;;;;;4.24;98.76;99155.91;4966605;29;20037;-71
2021/11/21 03:11:15;;;;;;;0.30;0.30;;;;;;;4.23;98.58;99159.34;4967033;29;20022;-70
2021/11/21 03:13:40;;;;;;;0.30;0.30;;;;;;;4.26;98.63;99158.47;4967072;29;20035;-71
2021/11/21 03:16:06;;;;;;;0.30;0.30;;;;;;;4.26;98.71;99158.47;4966323;28;20087;-70
2021/11/21 03:18:31;;;;;;;0.30;0.30;;;;;;;4.24;98.65;99155.91;4966134;29;20051;-71
2021/11/21 03:20:57;;;;;;;0.30;0.30;;;;;;;4.24;98.65;99160.16;4966793;29;20102;-70
2021/11/21 03:23:22;;;;;;;0.30;0.30;;;;;;;4.22;98.80;99150.75;4966874;29;20443;-71
2021/11/21 03:25:47;;;;;;;0.40;0.40;;;;;;;4.25;98.66;99156.75;4966734;29;20031;-71
2021/11/21 03:28:13;;;;;;;0.30;0.30;;;;;;;4.22;98.47;99155.03;4966741;28;20019;-72
2021/11/21 03:30:38;;;;;;;0.30;0.30;;;;;;;4.16;98.57;99161.06;4966512;29;20027;-71
2021/11/21 03:33:03;;;;;;;0.30;0.30;;;;;;;4.14;98.68;99155.06;4966630;29;20030;-71
2021/11/21 03:35:29;;;;;;;0.30;0.30;;;;;;;4.17;98.67;99162.75;4966339;28;20027;-72
2021/11/21 03:37:55;;;;;;;0.38;0.38;;;;;;;4.15;98.64;99164.50;4966166;29;20023;-71
2021/11/21 03:40:20;;;;;;;0.30;0.30;;;;;;;4.11;98.51;99167.91;4966326;29;20479;-72
2021/11/21 03:42:47;;;;;;;0.30;0.30;;;;;;;4.10;98.58;99161.06;4966605;29;20091;-71
2021/11/21 03:45:14;;;;;;;0.30;0.30;;;;;;;4.07;98.32;99168.78;4966182;29;20027;-71
2021/11/21 03:47:40;;;;;;;0.30;0.30;;;;;;;4.05;98.49;99170.50;4966180;29;20031;-72
2021/11/21 03:50:07;;;;;;;0.30;0.30;;;;;;;4.07;98.53;99168.78;4966317;29;20131;-72
2021/11/21 03:52:32;;;;;;;0.40;0.40;;;;;;;4.06;98.56;99167.91;4965895;29;20031;-72
2021/11/21 03:54:58;;;;;;;0.30;0.30;;;;;;;4.08;98.73;99166.22;4965963;29;20027;-71
2021/11/21 03:57:23;;;;;;;0.30;0.30;;;;;;;4.15;98.70;99173.91;4966039;29;20031;-72
2021/11/21 03:59:48;;;;;;;0.38;0.38;;;;;;;4.12;98.62;99173.91;4949099;29;20087;-71
2021/11/21 04:02:14;;;;;;;0.30;0.30;;;;;;;4.02;98.26;99166.22;4966182;29;20321;-70
2021/11/21 04:04:39;;;;;;;0.30;0.30;;;;;;;3.97;98.41;99165.38;4966076;29;20030;-71
2021/11/21 04:07:05;;;;;;;0.40;0.40;;;;;;;3.91;98.18;99163.69;4965920;29;20424;-71
2021/11/21 04:09:30;;;;;;;0.40;0.40;;;;;;;3.86;98.12;99169.66;4965944;29;20054;-71
2021/11/21 04:11:55;;;;;;;0.30;0.30;;;;;;;3.82;98.26;99179.94;4966092;29;20033;-71
2021/11/21 04:14:21;;;;;;;0.40;0.40;;;;;;;3.83;98.30;99176.50;4964465;29;20105;-71
2021/11/21 04:16:47;;;;;;;0.30;0.30;;;;;;;3.86;98.52;99175.66;4965451;29;20415;-71
2021/11/21 04:19:13;;;;;;;0.22;0.22;;;;;;;3.85;98.46;99173.94;4965940;29;20082;-70
2021/11/21 04:21:39;;;;;;;0.35;0.35;;;;;;;3.83;98.52;99196.19;4965846;29;20027;-71
2021/11/21 04:24:06;;;;;;;0.30;0.30;;;;;;;3.81;98.39;99183.38;4965721;29;20031;-70
2021/11/21 04:26:32;;;;;;;0.30;0.30;;;;;;;3.78;98.44;99178.22;4965722;29;20023;-71
2021/11/21 04:28:58;;;;;;;0.30;0.30;;;;;;;3.78;98.35;99193.63;4965463;28;20086;-70
2021/11/21 04:31:23;;;;;;;0.30;0.30;;;;;;;3.66;98.45;99188.50;4965803;29;20074;-70
2021/11/21 04:33:48;;;;;;;0.40;0.40;;;;;;;3.79;98.46;99220.16;4965654;29;20042;-70
2021/11/21 04:36:14;;;;;;;0.30;0.30;;;;;;;3.78;98.53;99221.00;4965446;29;20027;-70
2021/11/21 04:38:39;;;;;;;0.35;0.35;;;;;;;3.79;98.48;99230.41;4965474;29;20508;-70
2021/11/21 04:41:04;;;;;;;0.30;0.30;;;;;;;3.78;98.46;99223.59;4965387;29;20034;-71
2021/11/21 04:43:30;;;;;;;0.30;0.30;;;;;;;3.82;98.55;99238.13;4965354;29;20109;-71
2021/11/21 04:45:56;;;;;;;0.30;0.30;;;;;;;3.77;98.44;99216.75;4965318;29;20031;-71
2021/11/21 04:48:23;;;;;;;0.32;0.32;;;;;;;3.81;98.41;99244.97;4965511;29;20015;-71
2021/11/21 04:50:49;;;;;;;0.30;0.30;;;;;;;3.82;98.47;99253.53;4965312;29;20023;-70
2021/11/21 04:53:15;;;;;;;0.30;0.30;;;;;;;3.83;98.68;99252.69;4965395;29;20419;-70
2021/11/21 04:55:41;;;;;;;0.30;0.30;;;;;;;3.82;98.48;99254.38;4965322;29;20023;-70
2021/11/21 04:58:06;;;;;;;0.30;0.30;;;;;;;3.86;98.66;99262.09;4965095;29;20170;-71
2021/11/21 05:00:32;;;;;;;0.30;0.30;;;;;;;3.85;98.54;99238.13;4965383;29;20114;-70
2021/11/21 05:02:57;;;;;;;0.30;0.30;;;;;;;3.83;98.34;99273.22;4965342;29;20078;-70
2021/11/21 05:05:24;;;;;;;0.40;0.40;;;;;;;3.79;98.30;99284.31;4965229;29;20055;-71
2021/11/21 05:07:51;;;;;;;0.30;0.30;;;;;;;3.74;98.30;99284.31;4965092;29;20095;-71
2021/11/21 05:10:18;;;;;;;0.30;0.30;;;;;;;3.72;98.12;99289.47;4965126;29;20033;-70
2021/11/21 05:12:44;;;;;;;0.30;0.30;;;;;;;3.74;98.12;99296.31;4965044;29;20019;-70
2021/11/21 05:15:12;;;;;;;0.30;0.30;;;;;;;3.71;98.16;99310.84;4964809;29;20043;-70
2021/11/21 05:17:38;;;;;;;0.35;0.35;;;;;;;3.66;98.10;99291.19;4964788;29;20086;-69
2021/11/21 05:20:05;;;;;;;0.40;0.40;;;;;;;3.62;97.97;99298.00;4964821;29;20368;-69
2021/11/21 05:22:31;;;;;;;0.40;0.40;;;;;;;3.56;97.91;99303.97;4964739;29;20027;-70
2021/11/21 05:24:57;;;;;;;0.30;0.30;;;;;;;3.55;97.99;99311.66;4965036;29;20073;-69
2021/11/21 05:27:24;;;;;;;0.30;0.30;;;;;;;3.50;97.84;99314.22;4964831;29;20023;-69
2021/11/21 05:29:50;;;;;;;0.30;0.30;;;;;;;3.47;97.82;99316.78;4964850;29;20023;-69
2021/11/21 05:32:15;;;;;;;0.30;0.30;;;;;;;3.44;97.94;99322.78;4965025;29;20031;-69
2021/11/21 05:34:41;;;;;;;0.30;0.30;;;;;;;3.43;98.12;99317.63;4964696;29;20023;-69
2021/11/21 05:37:06;;;;;;;0.38;0.38;;;;;;;3.46;98.16;99323.63;4964474;29;20543;-69
2021/11/21 05:39:31;;;;;;;0.40;0.40;;;;;;;3.46;98.00;99331.34;4964758;28;20046;-69
2021/11/21 05:41:57;;;;;;;0.32;0.32;;;;;;;3.43;97.85;99326.19;4968597;29;20034;-69
2021/11/21 05:44:23;;;;;;;0.30;0.30;;;;;;;3.43;97.98;99333.91;4968658;29;20090;-70
2021/11/21 05:46:48;;;;;;;0.30;0.30;;;;;;;3.45;97.93;99336.47;4968342;29;20027;-70
2021/11/21 05:49:13;;;;;;;0.38;0.38;;;;;;;3.42;97.69;99345.00;4968491;29;20102;-69
2021/11/21 05:51:39;;;;;;;0.40;0.40;;;;;;;3.39;97.74;99344.97;4968183;29;20110;-70
2021/11/21 05:54:04;;;;;;;0.30;0.30;;;;;;;3.39;97.87;99346.69;4968366;29;20094;-69
2021/11/21 05:56:30;;;;;;;0.30;0.30;;;;;;;3.38;98.03;99343.28;4968259;29;20115;-69
2021/11/21 05:58:55;;;;;;;0.38;0.38;;;;;;;3.36;97.67;99352.66;4968330;29;20065;-69
2021/11/21 06:01:21;;;;;;;0.30;0.30;;;;;;;3.33;97.76;99352.66;4968200;29;20031;-69
2021/11/21 06:03:50;;;;;;;0.30;0.30;;;;;;;3.30;97.81;99357.78;4968294;29;20023;-69
2021/11/21 06:06:16;;;;;;;0.30;0.30;;;;;;;3.32;97.79;99363.78;4968068;29;20484;-68
2021/11/21 06:08:41;;;;;;;0.40;0.40;;;;;;;3.31;97.74;99362.03;4968047;29;20023;-68
2021/11/21 06:11:06;;;;;;;0.30;0.30;;;;;;;3.31;97.72;99362.91;4968173;29;20038;-68
2021/11/21 06:13:32;;;;;;;0.40;0.40;;;;;;;3.32;97.98;99364.63;4967792;29;20039;-69
2021/11/21 06:15:57;;;;;;;0.30;0.30;;;;;;;3.34;97.95;99367.19;4967785;29;20031;-69
2021/11/21 06:18:22;;;;;;;0.30;0.30;;;;;;;3.34;97.85;99365.50;4967696;29;20047;-68
2021/11/21 06:20:48;;;;;;;0.30;0.30;;;;;;;3.34;97.85;99370.63;4968079;29;20170;-68
2021/11/21 06:23:13;;;;;;;0.30;0.30;;;;;;;3.34;97.94;99373.19;4967588;29;20046;-68
2021/11/21 06:25:42;;;;;;;0.38;0.38;;;;;;;3.33;97.88;99380.88;4967766;29;20049;-68
2021/11/21 06:28:09;;;;;;;0.30;0.30;;;;;;;3.33;97.88;99386.00;4982342;28;20059;-68
2021/11/21 06:30:35;;;;;;;0.40;0.40;;;;;;;3.33;97.88;99383.44;4967846;29;20028;-68
2021/11/21 06:33:00;;;;;;;0.40;0.40;;;;;;;3.29;98.08;99382.56;4967854;29;20051;-67
2021/11/21 06:35:26;;;;;;;0.32;0.32;;;;;;;3.31;98.16;99391.13;4967421;29;20071;-68
2021/11/21 06:37:51;;;;;;;0.30;0.30;;;;;;;3.32;98.35;99392.00;4967406;29;20035;-68
2021/11/21 06:40:17;;;;;;;0.30;0.30;;;;;;;3.34;98.24;99400.53;4967715;29;20087;-68
2021/11/21 06:42:42;;;;;;;0.30;0.30;;;;;;;3.36;98.30;99411.69;4967582;29;20086;-67
2021/11/21 06:45:09;;;;;;;0.40;0.40;;;;;;;3.35;98.36;99402.28;4966118;29;20023;-68
2021/11/21 06:47:35;;;;;;;0.30;0.30;;;;;;;3.33;98.32;99407.41;4967523;29;20027;-69
2021/11/21 06:50:03;;;;;;;0.30;0.30;;;;;;;3.35;98.37;99415.94;4967332;29;20059;-69
2021/11/21 06:52:31;;;;;;;0.40;0.40;;;;;;;3.35;98.44;99420.25;4966972;28;20086;-69
2021/11/21 06:54:57;;;;;;;0.40;0.40;;;;;;;3.32;98.34;99425.34;4967318;29;20027;-69
2021/11/21 06:57:22;;;;;;;0.30;0.30;;;;;;;3.30;98.38;99443.31;4967056;29;20125;-69
2021/11/21 06:59:48;;;;;;;0.40;0.40;;;;;;;3.26;98.34;99440.72;4967111;29;20027;-69
2021/11/21 07:02:14;;;;;;;0.40;0.40;;;;;;;3.25;98.33;99454.38;4967225;28;20460;-69
2021/11/21 07:04:39;;;;;;;0.38;0.38;;;;;;;3.22;98.38;99455.22;4967051;29;20042;-69
2021/11/21 07:07:09;;;;;;;0.60;0.60;;;;;;;3.21;98.20;99461.22;4966691;29;20523;-68
2021/11/21 07:09:34;;;;;;;0.30;0.30;;;;;;;3.16;98.32;99455.19;4966783;29;20098;-68
2021/11/21 07:11:59;;;;;;;0.30;0.30;;;;;;;3.16;98.23;99462.88;4981723;28;20027;-68
2021/11/21 07:14:25;;;;;;;0.30;0.30;;;;;;;3.14;98.27;99473.13;4966969;29;20027;-68
2021/11/21 07:16:50;;;;;;;0.30;0.30;;;;;;;3.12;98.27;99479.94;4966511;29;20074;-68
2021/11/21 07:19:16;;;;;;;0.40;0.40;;;;;;;3.10;98.36;99481.63;4966849;29;20376;-69
2021/11/21 07:21:42;;;;;;;0.32;0.32;;;;;;;3.09;98.33;99495.31;4966758;29;20279;-66
2021/11/21 07:24:08;;;;;;;0.30;0.30;;;;;;;3.08;98.17;99493.59;4966852;29;20015;-66
2021/11/21 07:26:34;;;;;;;0.30;0.30;;;;;;;3.04;98.31;99497.84;4966522;29;20097;-67
2021/11/21 07:29:00;;;;;;;0.30;0.30;;;;;;;3.09;98.42;99511.56;4966345;29;20038;-66
2021/11/21 07:31:25;;;;;;;0.30;0.30;;;;;;;3.10;98.20;99520.09;4966814;29;20027;-68
2021/11/21 07:33:51;;;;;;;0.30;0.30;;;;;;;3.12;98.35;99525.25;4966347;29;20384;-69
2021/11/21 07:36:17;;;;;;;0.30;0.30;;;;;;;3.11;98.37;99532.09;4966344;29;20027;-67
2021/11/21 07:38:42;;;;;;;0.20;0.20;;;;;;;3.14;98.35;99534.69;4966065;29;20463;-67
2021/11/21 07:41:08;;;;;;;0.40;0.40;;;;;;;3.14;98.36;99537.25;4966349;29;20027;-68
2021/11/21 07:43:33;;;;;;;0.40;0.40;;;;;;;3.18;98.38;99545.84;4966036;29;20030;-68
2021/11/21 07:46:00;;;;;;;0.30;0.30;;;;;;;3.13;98.49;99553.47;4965997;29;20038;-69
2021/11/21 07:48:28;;;;;;;0.40;0.40;;;;;;;3.17;98.26;99549.22;4966388;29;20094;-70
2021/11/21 07:50:54;;;;;;;0.30;0.30;;;;;;;3.18;98.35;99564.63;4966157;29;20041;-70
2021/11/21 07:53:20;;;;;;;0.38;0.38;;;;;;;3.19;98.17;99562.94;4965936;29;20035;-70
2021/11/21 07:55:47;;;;;;;0.30;0.30;;;;;;;3.17;98.12;99575.75;4965744;29;20070;-69
2021/11/21 07:58:12;;;;;;;0.40;0.40;;;;;;;3.17;98.20;99574.88;4965656;29;20072;-70
2021/11/21 08:00:37;;;;;;;0.38;0.38;;;;;;;3.15;98.28;99582.56;4965814;29;20043;-69
2021/11/21 08:03:03;;;;;;;0.35;0.35;;;;;;;3.17;98.36;99591.13;4964958;28;20027;-70
2021/11/21 08:05:28;;;;;;;0.30;0.30;;;;;;;3.19;98.23;99599.72;4965600;29;20118;-70
2021/11/21 08:07:54;;;;;;;0.30;0.30;;;;;;;3.18;98.02;99604.84;4965625;29;20058;-70
2021/11/21 08:10:20;;;;;;;0.40;0.40;;;;;;;3.17;98.07;99616.78;4965479;29;20019;-70
2021/11/21 08:12:46;;;;;;;0.40;0.40;;;;;;;3.15;97.87;99605.66;4965445;29;20080;-70
2021/11/21 08:15:11;;;;;;;0.35;0.35;;;;;;;3.15;98.12;99617.59;4965625;29;20110;-70
2021/11/21 08:17:37;;;;;;;0.35;0.35;;;;;;;3.17;98.01;99623.63;4965123;29;20066;-70
2021/11/21 08:20:04;;;;;;;0.40;0.40;;;;;;;3.16;98.01;99625.34;4965380;29;20179;-69
2021/11/21 08:22:29;;;;;;;0.35;0.35;;;;;;;3.18;97.94;99639.03;4965216;29;20029;-73
2021/11/21 08:24:55;;;;;;;0.40;0.40;;;;;;;3.18;97.96;99639.03;4965249;29;20048;-69
2021/11/21 08:27:20;;;;;;;0.30;0.30;;;;;;;3.20;97.93;99651.84;4965048;29;20019;-69
2021/11/21 08:29:46;;;;;;;0.32;0.32;;;;;;;3.19;97.79;99645.88;4965447;29;20047;-69
2021/11/21 08:32:11;;;;;;;0.40;0.40;;;;;;;3.22;97.92;99650.19;4965110;29;20086;-68
2021/11/21 08:34:36;;;;;;;0.30;0.30;;;;;;;3.20;97.90;99660.44;4965112;29;20027;-69
2021/11/21 08:37:02;;;;;;;0.40;0.40;;;;;;;3.22;97.91;99663.88;4964699;29;20106;-70
2021/11/21 08:39:27;;;;;;;0.30;0.30;;;;;;;3.24;98.02;99663.88;4964913;29;20027;-69
2021/11/21 08:41:55;;;;;;;0.40;0.40;;;;;;;3.26;97.84;99667.31;4964650;29;20023;-68
2021/11/21 08:44:22;;;;;;;0.30;0.30;;;;;;;3.26;97.70;99679.28;4964818;29;20042;-69
2021/11/21 08:46:48;;;;;;;0.30;0.30;;;;;;;3.24;97.67;99691.25;4964692;29;20163;-68
2021/11/21 08:49:14;;;;;;;0.30;0.30;;;;;;;3.20;97.69;99698.03;4964785;29;20035;-68
2021/11/21 08:51:45;;;;;;;0.30;0.30;;;;;;;3.19;97.59;99694.63;4964521;29;20027;-68
2021/11/21 08:54:12;;;;;;;0.40;0.40;;;;;;;3.27;97.77;99712.66;4964426;29;20034;-69
2021/11/21 08:56:38;;;;;;;0.30;0.30;;;;;;;3.29;97.64;99710.94;4964297;29;20400;-69
2021/11/21 08:59:04;;;;;;;0.30;0.30;;;;;;;3.35;97.88;99715.31;4964359;29;20403;-69
2021/11/21 09:01:29;;;;;;;0.40;0.40;;;;;;;3.44;97.71;99723.09;4964511;29;20035;-70
2021/11/21 09:03:54;;;;;;;0.30;0.30;;;;;;;3.37;97.50;99705.06;4964259;29;20039;-69
2021/11/21 09:06:20;;;;;;;0.30;0.30;;;;;;;3.44;97.33;99723.09;4964561;29;20090;-70
2021/11/21 09:08:45;;;;;;;0.30;0.30;;;;;;;3.51;97.41;99735.97;4962936;29;20090;-70
2021/11/21 09:11:11;;;;;;;0.40;0.40;;;;;;;3.70;97.61;99740.44;4964425;29;20558;-72
2021/11/21 09:13:36;;;;;;;0.30;0.30;;;;;;;4.01;97.78;99752.66;4964732;29;20083;-72
2021/11/21 09:16:01;;;;;;;0.40;0.40;;;;;;;4.11;97.29;99747.59;4963874;28;20074;-71
2021/11/21 09:18:27;;;;;;;0.30;0.30;;;;;;;3.97;96.78;99761.22;4964328;29;20070;-71
2021/11/21 09:20:58;;;;;;;0.30;0.30;;;;;;;3.79;96.68;99761.91;4964734;29;20075;-71
2021/11/21 09:23:24;;;;;;;0.35;0.35;;;;;;;3.73;96.60;99760.16;4964292;29;20643;-71
2021/11/21 09:25:52;;;;;;;0.30;0.30;;;;;;;3.75;96.87;99768.72;4964578;29;20063;-71
2021/11/21 09:28:19;;;;;;;0.30;0.30;;;;;;;3.74;96.82;99768.72;4964412;29;20111;-71
2021/11/21 09:30:45;;;;;;;0.30;0.30;;;;;;;3.75;96.86;99775.56;4964287;29;20023;-72
2021/11/21 09:33:10;;;;;;;0.35;0.35;;;;;;;3.79;96.82;99777.31;4962793;29;20050;-71
2021/11/21 09:35:36;;;;;;;0.30;0.30;;;;;;;3.83;96.76;99779.06;4964089;29;20098;-72
2021/11/21 09:38:01;;;;;;;0.30;0.30;;;;;;;3.83;96.63;99782.47;4964229;29;20100;-71
2021/11/21 09:40:27;;;;;;;0.30;0.30;;;;;;;3.88;96.67;99774.84;4964586;29;20468;-71
2021/11/21 09:42:53;;;;;;;0.35;0.35;;;;;;;3.97;96.74;99785.19;4964452;29;20059;-71
2021/11/21 09:45:19;;;;;;;0.30;0.30;;;;;;;4.13;96.69;99793.03;4964024;29;20027;-71
2021/11/21 09:47:54;;;;;;;0.30;0.30;;;;;;;4.40;96.90;99801.78;4963730;29;20028;-70
2021/11/21 09:50:21;;;;;;;0.40;0.40;;;;;;;4.96;97.39;99802.13;4964164;29;20027;-70
2021/11/21 09:52:48;;;;;;;0.30;0.30;;;;;;;6.07;97.33;99793.84;4964162;29;20027;-69
2021/11/21 09:55:14;;;;;;;0.30;0.30;;;;;;;6.95;94.98;99791.97;4964210;29;20452;-69
2021/11/21 09:57:39;;;;;;;0.40;0.40;;;;;;;7.69;92.52;99790.78;4964029;29;20054;-70
2021/11/21 10:00:11;;;;;;;0.30;0.30;;;;;;;8.35;90.56;99799.75;4964095;29;20027;-69
2021/11/21 10:02:40;;;;;;;0.38;0.38;;;;;;;8.80;89.30;99807.13;4964091;29;20085;-70
2021/11/21 10:05:25;;;;;;;0.30;0.30;;;;;;;9.22;86.76;99809.19;4964063;29;20037;-69
2021/11/21 10:08:08;;;;;;;0.30;0.30;;;;;;;8.91;84.57;99810.41;4964062;29;20387;-69
2021/11/21 10:11:00;;;;;;;0.30;0.30;;;;;;;8.98;85.12;99820.72;4964358;29;20031;-69
2021/11/21 10:13:43;;;;;;;0.30;0.30;;;;;;;8.62;85.13;99827.13;4964170;29;20106;-68
2021/11/21 10:16:19;;;;;;;0.30;0.30;;;;;;;8.01;85.09;99837.94;4963856;29;20035;-69
2021/11/21 10:18:45;;;;;;;0.20;0.20;;;;;;;7.60;86.53;99831.31;4964008;29;20066;-70
2021/11/21 10:21:10;;;;;;;0.30;0.30;;;;;;;7.58;88.94;99839.06;4963927;29;20023;-69
2021/11/21 10:23:36;;;;;;;0.30;0.30;;;;;;;7.68;90.09;99835.53;4963794;29;20027;-69
2021/11/21 10:26:01;;;;;;;0.30;0.30;;;;;;;7.61;89.87;99835.59;4964452;28;20070;-67
2021/11/21 10:28:30;;;;;;;0.30;0.30;;;;;;;7.31;89.87;99843.50;4967339;29;20025;-75
2021/11/21 10:31:00;;;;;;;0.30;0.30;;;;;;;7.12;90.68;99850.44;4967614;29;20059;-73
2021/11/21 10:33:47;;;;;;;0.30;0.30;;;;;;;6.89;91.14;99848.78;4967389;29;20051;-77
2021/11/21 10:36:19;;;;;;;0.30;0.30;;;;;;;6.66;91.52;99858.25;4960216;28;20101;-71
2021/11/21 10:38:59;;;;;;;0.40;0.40;;;;;;;6.48;92.03;99871.19;4967147;29;20031;-67
2021/11/21 10:41:28;;;;;;;0.30;0.30;;;;;;;6.22;92.34;99869.44;4950117;29;20035;-79
2021/11/21 10:44:02;;;;;;;0.30;0.30;;;;;;;6.12;93.07;99866.84;4950045;29;20042;-72
2021/11/21 10:46:38;;;;;;;0.22;0.22;;;;;;;6.15;94.27;99872.03;4967374;29;20054;-72
2021/11/21 10:49:15;;;;;;;0.30;0.30;;;;;;;6.27;94.93;99878.06;4950081;29;20035;-74
2021/11/21 10:51:42;;;;;;;0.40;0.40;;;;;;;6.45;94.47;99878.03;4967031;29;20222;-77
2021/11/21 10:54:34;;;;;;;0.30;0.30;;;;;;;6.75;93.29;99885.78;4967297;29;20050;-70
2021/11/21 10:57:06;;;;;;;0.40;0.40;;;;;;;7.22;89.68;99870.19;4966846;29;20099;-69
2021/11/21 10:59:53;;;;;;;;;;;;;;;7.71;86.53;99893.25;4966382;29;20118;-75
2021/11/21 11:02:21;;;;;;;0.40;0.40;;;;;;;8.17;84.64;99890.41;4966816;29;19949;-74
2021/11/21 11:05:18;;;;;;;0.30;0.30;;;;;;;8.71;82.25;99882.22;4966661;29;20019;-73
2021/11/21 11:07:46;;;;;;;0.30;0.30;;;;;;;8.83;80.71;99889.03;4966889;29;20055;-71
2021/11/21 11:10:16;;;;;;;0.30;0.30;;;;;;;8.50;80.38;99878.97;4966902;29;20127;-72
2021/11/21 11:12:45;;;;;;;0.30;0.30;;;;;;;8.52;80.28;99892.72;4967149;29;20019;-70
2021/11/21 11:15:12;;;;;;;0.30;0.30;;;;;;;8.36;78.34;99900.59;4966716;29;20027;-72
2021/11/21 11:17:38;;;;;;;0.40;0.40;;;;;;;7.49;80.10;99903.69;4966235;29;20052;-73
2021/11/21 11:20:07;;;;;;;0.30;0.30;;;;;;;6.56;81.38;99906.44;4966574;29;20029;-75
2021/11/21 11:22:33;;;;;;;0.40;0.40;;;;;;;5.83;82.52;99908.88;4966264;29;20027;-76
2021/11/21 11:25:03;;;;;;;0.40;0.40;;;;;;;5.31;84.59;99920.66;4966677;29;20023;-75
2021/11/21 11:27:41;;;;;;;0.40;0.40;;;;;;;4.94;85.61;99919.59;4966236;29;20027;-75
2021/11/21 11:30:07;;;;;;;0.40;0.40;;;;;;;4.65;86.60;99937.38;4966173;29;20419;-74
2021/11/21 11:32:36;;;;;;;0.40;0.40;;;;;;;4.41;87.32;99926.88;4966355;29;20097;-74
2021/11/21 11:35:05;;;;;;;0.30;0.30;;;;;;;4.31;87.63;99935.38;4966217;29;20050;-71
2021/11/21 11:37:36;;;;;;;0.32;0.32;;;;;;;4.18;88.56;99942.06;4965019;28;20102;-74
2021/11/21 11:40:01;;;;;;;0.30;0.30;;;;;;;4.07;88.63;99929.97;4966121;29;20027;-74